sensor_id;sensor_type;location;lat;lon;timestamp;P1;durP1;ratioP1;P2;durP2;ratioP2
3131;SDS011;62090;52.330;9.104;2023-12-07T00:02:07;32.23;;;23.47;;
3131;SDS011;62090;52.330;9.104;2023-12-07T00:04:39;30.70;;;22.20;;
3131;SDS011;62090;52.330;9.104;2023-12-07T00:07:08;29.13;;;22.13;;
3131;SDS011;62090;52.330;9.104;2023-12-07T00:09:41;28.77;;;22.30;;
3131;SDS011;62090;52.330;9.104;2023-12-07T00:12:11;29.80;;;22.23;;
3131;SDS011;62090;52.330;9.104;2023-12-07T00:14:40;31.80;;;22.17;;
3131;SDS011;62090;52.330;9.104;2023-12-07T00:17:10;29.03;;;22.10;;
3131;SDS011;62090;52.330;9.104;2023-12-07T00:19:41;31.30;;;22.20;;
3131;SDS011;62090;52.330;9.104;2023-12-07T00:22:10;30.27;;;22.40;;
3131;SDS011;62090;52.330;9.104;2023-12-07T00:24:43;31.53;;;22.13;;
3131;SDS011;62090;52.330;9.104;2023-12-07T00:27:13;28.90;;;20.83;;
3131;SDS011;62090;52.330;9.104;2023-12-07T00:29:42;28.50;;;21.07;;
3131;SDS011;62090;52.330;9.104;2023-12-07T00:32:12;26.63;;;20.13;;
3131;SDS011;62090;52.330;9.104;2023-12-07T00:34:42;35.60;;;20.20;;
3131;SDS011;62090;52.330;9.104;2023-12-07T00:37:12;31.43;;;19.73;;
3131;SDS011;62090;52.330;9.104;2023-12-07T00:39:45;27.50;;;20.00;;
3131;SDS011;62090;52.330;9.104;2023-12-07T00:42:15;30.40;;;19.70;;
3131;SDS011;62090;52.330;9.104;2023-12-07T00:44:45;26.63;;;19.27;;
3131;SDS011;62090;52.330;9.104;2023-12-07T00:47:15;27.03;;;18.93;;
3131;SDS011;62090;52.330;9.104;2023-12-07T00:49:45;30.63;;;20.47;;
3131;SDS011;62090;52.330;9.104;2023-12-07T00:52:15;27.67;;;18.30;;
3131;SDS011;62090;52.330;9.104;2023-12-07T00:54:47;25.97;;;20.60;;
3131;SDS011;62090;52.330;9.104;2023-12-07T00:57:17;26.07;;;19.77;;
3131;SDS011;62090;52.330;9.104;2023-12-07T00:59:47;24.77;;;19.00;;
3131;SDS011;62090;52.330;9.104;2023-12-07T01:02:17;30.97;;;19.53;;
3131;SDS011;62090;52.330;9.104;2023-12-07T01:04:48;23.60;;;17.40;;
3131;SDS011;62090;52.330;9.104;2023-12-07T01:07:18;27.10;;;19.00;;
3131;SDS011;62090;52.330;9.104;2023-12-07T01:09:50;25.77;;;18.00;;
3131;SDS011;62090;52.330;9.104;2023-12-07T01:12:20;25.87;;;18.33;;
3131;SDS011;62090;52.330;9.104;2023-12-07T01:14:51;23.50;;;18.57;;
3131;SDS011;62090;52.330;9.104;2023-12-07T01:17:21;28.67;;;17.20;;
3131;SDS011;62090;52.330;9.104;2023-12-07T01:19:51;27.50;;;19.20;;
3131;SDS011;62090;52.330;9.104;2023-12-07T01:22:20;23.67;;;19.90;;
3131;SDS011;62090;52.330;9.104;2023-12-07T01:24:53;31.90;;;19.53;;
3131;SDS011;62090;52.330;9.104;2023-12-07T01:27:23;27.50;;;20.03;;
3131;SDS011;62090;52.330;9.104;2023-12-07T01:29:51;25.10;;;18.20;;
3131;SDS011;62090;52.330;9.104;2023-12-07T01:32:21;22.50;;;17.67;;
3131;SDS011;62090;52.330;9.104;2023-12-07T01:34:51;25.53;;;18.30;;
3131;SDS011;62090;52.330;9.104;2023-12-07T01:37:21;24.93;;;18.00;;
3131;SDS011;62090;52.330;9.104;2023-12-07T01:39:54;23.37;;;17.13;;
3131;SDS011;62090;52.330;9.104;2023-12-07T01:42:24;23.50;;;18.00;;
3131;SDS011;62090;52.330;9.104;2023-12-07T01:44:53;25.07;;;17.00;;
3131;SDS011;62090;52.330;9.104;2023-12-07T01:47:23;21.47;;;17.50;;
3131;SDS011;62090;52.330;9.104;2023-12-07T01:49:54;23.50;;;17.30;;
3131;SDS011;62090;52.330;9.104;2023-12-07T01:52:25;24.33;;;17.50;;
3131;SDS011;62090;52.330;9.104;2023-12-07T01:55:01;23.70;;;16.87;;
3131;SDS011;62090;52.330;9.104;2023-12-07T01:57:31;27.17;;;18.00;;
3131;SDS011;62090;52.330;9.104;2023-12-07T02:00:01;21.87;;;17.07;;
3131;SDS011;62090;52.330;9.104;2023-12-07T02:02:31;23.30;;;17.43;;
3131;SDS011;62090;52.330;9.104;2023-12-07T02:05:01;24.00;;;18.13;;
3131;SDS011;62090;52.330;9.104;2023-12-07T02:07:32;24.33;;;17.90;;
3131;SDS011;62090;52.330;9.104;2023-12-07T02:10:06;24.57;;;18.47;;
3131;SDS011;62090;52.330;9.104;2023-12-07T02:12:37;23.60;;;16.90;;
3131;SDS011;62090;52.330;9.104;2023-12-07T02:15:07;29.50;;;17.23;;
3131;SDS011;62090;52.330;9.104;2023-12-07T02:17:38;25.70;;;18.07;;
3131;SDS011;62090;52.330;9.104;2023-12-07T02:20:20;23.87;;;17.40;;
3131;SDS011;62090;52.330;9.104;2023-12-07T02:22:55;32.13;;;19.10;;
3131;SDS011;62090;52.330;9.104;2023-12-07T02:25:40;26.07;;;18.40;;
3131;SDS011;62090;52.330;9.104;2023-12-07T02:28:20;22.63;;;17.33;;
3131;SDS011;62090;52.330;9.104;2023-12-07T02:30:50;20.30;;;17.80;;
3131;SDS011;62090;52.330;9.104;2023-12-07T02:33:20;25.70;;;18.60;;
3131;SDS011;62090;52.330;9.104;2023-12-07T02:35:50;23.87;;;17.10;;
3131;SDS011;62090;52.330;9.104;2023-12-07T02:38:20;27.33;;;17.50;;
3131;SDS011;62090;52.330;9.104;2023-12-07T02:40:55;20.50;;;16.27;;
3131;SDS011;62090;52.330;9.104;2023-12-07T02:43:29;24.50;;;17.60;;
3131;SDS011;62090;52.330;9.104;2023-12-07T02:45:59;36.70;;;19.13;;
3131;SDS011;62090;52.330;9.104;2023-12-07T02:48:29;24.60;;;18.00;;
3131;SDS011;62090;52.330;9.104;2023-12-07T02:50:59;29.40;;;18.47;;
3131;SDS011;62090;52.330;9.104;2023-12-07T02:53:29;27.97;;;18.50;;
3131;SDS011;62090;52.330;9.104;2023-12-07T02:55:58;21.23;;;15.90;;
3131;SDS011;62090;52.330;9.104;2023-12-07T02:58:31;22.40;;;18.07;;
3131;SDS011;62090;52.330;9.104;2023-12-07T03:01:01;28.23;;;18.87;;
3131;SDS011;62090;52.330;9.104;2023-12-07T03:03:31;25.93;;;17.80;;
3131;SDS011;62090;52.330;9.104;2023-12-07T03:06:01;24.70;;;18.07;;
3131;SDS011;62090;52.330;9.104;2023-12-07T03:08:31;25.47;;;17.63;;
3131;SDS011;62090;52.330;9.104;2023-12-07T03:11:01;21.10;;;17.57;;
3131;SDS011;62090;52.330;9.104;2023-12-07T03:13:33;22.70;;;17.00;;
3131;SDS011;62090;52.330;9.104;2023-12-07T03:16:06;24.23;;;17.93;;
3131;SDS011;62090;52.330;9.104;2023-12-07T03:18:37;26.43;;;19.27;;
3131;SDS011;62090;52.330;9.104;2023-12-07T03:21:07;23.20;;;18.37;;
3131;SDS011;62090;52.330;9.104;2023-12-07T03:23:37;26.07;;;19.33;;
3131;SDS011;62090;52.330;9.104;2023-12-07T03:26:07;26.93;;;19.63;;
3131;SDS011;62090;52.330;9.104;2023-12-07T03:28:39;25.90;;;18.97;;
3131;SDS011;62090;52.330;9.104;2023-12-07T03:31:09;22.60;;;18.73;;
3131;SDS011;62090;52.330;9.104;2023-12-07T03:33:40;30.50;;;20.23;;
3131;SDS011;62090;52.330;9.104;2023-12-07T03:36:11;29.00;;;19.57;;
3131;SDS011;62090;52.330;9.104;2023-12-07T03:38:41;28.40;;;18.70;;
3131;SDS011;62090;52.330;9.104;2023-12-07T03:41:11;28.57;;;20.80;;
3131;SDS011;62090;52.330;9.104;2023-12-07T03:43:43;29.23;;;21.30;;
3131;SDS011;62090;52.330;9.104;2023-12-07T03:46:13;28.43;;;19.13;;
3131;SDS011;62090;52.330;9.104;2023-12-07T03:48:43;31.53;;;22.53;;
3131;SDS011;62090;52.330;9.104;2023-12-07T03:51:13;29.17;;;22.10;;
3131;SDS011;62090;52.330;9.104;2023-12-07T03:53:43;31.80;;;22.30;;
3131;SDS011;62090;52.330;9.104;2023-12-07T03:56:22;34.37;;;21.83;;
3131;SDS011;62090;52.330;9.104;2023-12-07T03:58:55;32.87;;;21.77;;
3131;SDS011;62090;52.330;9.104;2023-12-07T04:01:29;36.63;;;21.37;;
3131;SDS011;62090;52.330;9.104;2023-12-07T04:03:59;30.23;;;21.70;;
3131;SDS011;62090;52.330;9.104;2023-12-07T04:06:29;29.90;;;23.07;;
3131;SDS011;62090;52.330;9.104;2023-12-07T04:08:59;33.50;;;23.37;;
3131;SDS011;62090;52.330;9.104;2023-12-07T04:11:29;32.23;;;21.40;;
3131;SDS011;62090;52.330;9.104;2023-12-07T04:14:01;34.40;;;22.90;;
3131;SDS011;62090;52.330;9.104;2023-12-07T04:16:32;29.97;;;21.43;;
3131;SDS011;62090;52.330;9.104;2023-12-07T04:19:01;33.13;;;23.60;;
3131;SDS011;62090;52.330;9.104;2023-12-07T04:21:31;34.67;;;22.60;;
3131;SDS011;62090;52.330;9.104;2023-12-07T04:24:01;36.87;;;21.97;;
3131;SDS011;62090;52.330;9.104;2023-12-07T04:26:31;34.27;;;23.57;;
3131;SDS011;62090;52.330;9.104;2023-12-07T04:29:04;29.00;;;22.60;;
3131;SDS011;62090;52.330;9.104;2023-12-07T04:31:34;33.90;;;22.67;;
3131;SDS011;62090;52.330;9.104;2023-12-07T04:34:04;32.17;;;23.90;;
3131;SDS011;62090;52.330;9.104;2023-12-07T04:36:33;32.13;;;22.53;;
3131;SDS011;62090;52.330;9.104;2023-12-07T04:39:03;46.53;;;23.37;;
3131;SDS011;62090;52.330;9.104;2023-12-07T04:41:35;32.07;;;23.17;;
3131;SDS011;62090;52.330;9.104;2023-12-07T04:44:07;37.13;;;22.67;;
3131;SDS011;62090;52.330;9.104;2023-12-07T04:46:37;32.43;;;23.60;;
3131;SDS011;62090;52.330;9.104;2023-12-07T04:49:07;38.13;;;23.27;;
3131;SDS011;62090;52.330;9.104;2023-12-07T04:51:37;34.97;;;22.67;;
3131;SDS011;62090;52.330;9.104;2023-12-07T04:54:09;33.97;;;23.17;;
3131;SDS011;62090;52.330;9.104;2023-12-07T04:56:45;27.67;;;22.10;;
3131;SDS011;62090;52.330;9.104;2023-12-07T04:59:18;32.40;;;22.30;;
3131;SDS011;62090;52.330;9.104;2023-12-07T05:01:48;29.37;;;21.93;;
3131;SDS011;62090;52.330;9.104;2023-12-07T05:04:17;38.53;;;22.50;;
3131;SDS011;62090;52.330;9.104;2023-12-07T05:06:47;31.27;;;21.73;;
3131;SDS011;62090;52.330;9.104;2023-12-07T05:09:17;32.37;;;22.33;;
3131;SDS011;62090;52.330;9.104;2023-12-07T05:11:48;31.10;;;22.97;;
3131;SDS011;62090;52.330;9.104;2023-12-07T05:14:20;32.50;;;21.57;;
3131;SDS011;62090;52.330;9.104;2023-12-07T05:16:50;30.63;;;22.00;;
3131;SDS011;62090;52.330;9.104;2023-12-07T05:19:22;31.73;;;21.30;;
3131;SDS011;62090;52.330;9.104;2023-12-07T05:21:53;31.53;;;22.03;;
3131;SDS011;62090;52.330;9.104;2023-12-07T05:24:23;35.30;;;23.77;;
3131;SDS011;62090;52.330;9.104;2023-12-07T05:26:53;39.40;;;22.37;;
3131;SDS011;62090;52.330;9.104;2023-12-07T05:29:26;35.20;;;22.93;;
3131;SDS011;62090;52.330;9.104;2023-12-07T05:31:56;32.60;;;22.30;;
3131;SDS011;62090;52.330;9.104;2023-12-07T05:34:26;33.87;;;22.33;;
3131;SDS011;62090;52.330;9.104;2023-12-07T05:36:56;32.30;;;23.30;;
3131;SDS011;62090;52.330;9.104;2023-12-07T05:39:26;36.13;;;22.00;;
3131;SDS011;62090;52.330;9.104;2023-12-07T05:41:56;33.07;;;22.17;;
3131;SDS011;62090;52.330;9.104;2023-12-07T05:44:28;32.67;;;22.40;;
3131;SDS011;62090;52.330;9.104;2023-12-07T05:46:58;29.83;;;22.00;;
3131;SDS011;62090;52.330;9.104;2023-12-07T05:49:28;29.93;;;21.90;;
3131;SDS011;62090;52.330;9.104;2023-12-07T05:51:58;32.43;;;20.87;;
3131;SDS011;62090;52.330;9.104;2023-12-07T05:54:27;32.17;;;22.40;;
3131;SDS011;62090;52.330;9.104;2023-12-07T05:56:57;35.50;;;22.87;;
3131;SDS011;62090;52.330;9.104;2023-12-07T05:59:30;33.70;;;21.00;;
3131;SDS011;62090;52.330;9.104;2023-12-07T06:02:00;29.63;;;20.87;;
3131;SDS011;62090;52.330;9.104;2023-12-07T06:04:33;31.50;;;21.53;;
3131;SDS011;62090;52.330;9.104;2023-12-07T06:07:03;35.10;;;22.07;;
3131;SDS011;62090;52.330;9.104;2023-12-07T06:09:33;34.90;;;23.30;;
3131;SDS011;62090;52.330;9.104;2023-12-07T06:12:03;32.47;;;22.10;;
3131;SDS011;62090;52.330;9.104;2023-12-07T06:14:36;32.73;;;22.70;;
3131;SDS011;62090;52.330;9.104;2023-12-07T06:17:06;35.03;;;22.00;;
3131;SDS011;62090;52.330;9.104;2023-12-07T06:19:35;26.57;;;20.23;;
3131;SDS011;62090;52.330;9.104;2023-12-07T06:22:05;28.23;;;21.30;;
3131;SDS011;62090;52.330;9.104;2023-12-07T06:24:35;32.03;;;23.00;;
3131;SDS011;62090;52.330;9.104;2023-12-07T06:27:05;32.90;;;21.20;;
3131;SDS011;62090;52.330;9.104;2023-12-07T06:29:39;32.80;;;21.80;;
3131;SDS011;62090;52.330;9.104;2023-12-07T06:32:09;38.70;;;20.90;;
3131;SDS011;62090;52.330;9.104;2023-12-07T06:34:39;29.07;;;19.60;;
3131;SDS011;62090;52.330;9.104;2023-12-07T06:37:09;28.87;;;20.67;;
3131;SDS011;62090;52.330;9.104;2023-12-07T06:39:39;29.60;;;21.10;;
3131;SDS011;62090;52.330;9.104;2023-12-07T06:42:09;29.67;;;21.03;;
3131;SDS011;62090;52.330;9.104;2023-12-07T06:44:42;26.70;;;20.53;;
3131;SDS011;62090;52.330;9.104;2023-12-07T06:47:12;28.10;;;19.90;;
3131;SDS011;62090;52.330;9.104;2023-12-07T06:49:42;25.60;;;18.50;;
3131;SDS011;62090;52.330;9.104;2023-12-07T06:52:18;25.63;;;18.93;;
3131;SDS011;62090;52.330;9.104;2023-12-07T06:54:48;32.47;;;21.53;;
3131;SDS011;62090;52.330;9.104;2023-12-07T06:57:18;32.77;;;20.17;;
3131;SDS011;62090;52.330;9.104;2023-12-07T06:59:51;28.93;;;21.20;;
3131;SDS011;62090;52.330;9.104;2023-12-07T07:02:21;27.43;;;19.00;;
3131;SDS011;62090;52.330;9.104;2023-12-07T07:04:51;26.90;;;19.00;;
3131;SDS011;62090;52.330;9.104;2023-12-07T07:07:21;27.60;;;18.90;;
3131;SDS011;62090;52.330;9.104;2023-12-07T07:09:51;29.67;;;19.27;;
3131;SDS011;62090;52.330;9.104;2023-12-07T07:12:21;27.63;;;19.20;;
3131;SDS011;62090;52.330;9.104;2023-12-07T07:14:54;29.27;;;19.27;;
3131;SDS011;62090;52.330;9.104;2023-12-07T07:17:24;28.37;;;18.83;;
3131;SDS011;62090;52.330;9.104;2023-12-07T07:19:55;28.87;;;19.63;;
3131;SDS011;62090;52.330;9.104;2023-12-07T07:22:25;25.67;;;18.90;;
3131;SDS011;62090;52.330;9.104;2023-12-07T07:24:55;30.23;;;20.20;;
3131;SDS011;62090;52.330;9.104;2023-12-07T07:27:25;26.17;;;17.40;;
3131;SDS011;62090;52.330;9.104;2023-12-07T07:29:58;31.50;;;19.17;;
3131;SDS011;62090;52.330;9.104;2023-12-07T07:32:31;28.17;;;20.23;;
3131;SDS011;62090;52.330;9.104;2023-12-07T07:35:01;26.20;;;19.93;;
3131;SDS011;62090;52.330;9.104;2023-12-07T07:37:31;26.13;;;18.67;;
3131;SDS011;62090;52.330;9.104;2023-12-07T07:40:00;30.80;;;20.67;;
3131;SDS011;62090;52.330;9.104;2023-12-07T07:42:33;34.60;;;21.00;;
3131;SDS011;62090;52.330;9.104;2023-12-07T07:45:07;33.00;;;20.97;;
3131;SDS011;62090;52.330;9.104;2023-12-07T07:47:37;31.90;;;22.10;;
3131;SDS011;62090;52.330;9.104;2023-12-07T07:50:08;32.50;;;22.47;;
3131;SDS011;62090;52.330;9.104;2023-12-07T07:52:39;37.73;;;23.17;;
3131;SDS011;62090;52.330;9.104;2023-12-07T07:55:10;34.30;;;22.60;;
3131;SDS011;62090;52.330;9.104;2023-12-07T07:57:40;31.83;;;23.20;;
3131;SDS011;62090;52.330;9.104;2023-12-07T08:00:13;35.20;;;24.10;;
3131;SDS011;62090;52.330;9.104;2023-12-07T08:02:44;33.30;;;23.77;;
3131;SDS011;62090;52.330;9.104;2023-12-07T08:05:14;45.07;;;24.70;;
3131;SDS011;62090;52.330;9.104;2023-12-07T08:07:44;37.93;;;24.87;;
3131;SDS011;62090;52.330;9.104;2023-12-07T08:10:14;38.93;;;22.30;;
3131;SDS011;62090;52.330;9.104;2023-12-07T08:12:44;30.70;;;23.07;;
3131;SDS011;62090;52.330;9.104;2023-12-07T08:15:16;33.63;;;23.03;;
3131;SDS011;62090;52.330;9.104;2023-12-07T08:17:48;36.60;;;22.77;;
3131;SDS011;62090;52.330;9.104;2023-12-07T08:20:18;36.57;;;23.20;;
3131;SDS011;62090;52.330;9.104;2023-12-07T08:22:48;40.20;;;24.93;;
3131;SDS011;62090;52.330;9.104;2023-12-07T08:25:18;40.17;;;24.73;;
3131;SDS011;62090;52.330;9.104;2023-12-07T08:27:48;38.97;;;25.10;;
3131;SDS011;62090;52.330;9.104;2023-12-07T08:30:21;40.43;;;26.93;;
3131;SDS011;62090;52.330;9.104;2023-12-07T08:32:50;38.53;;;24.67;;
3131;SDS011;62090;52.330;9.104;2023-12-07T08:35:21;35.00;;;23.77;;
3131;SDS011;62090;52.330;9.104;2023-12-07T08:37:51;36.00;;;24.13;;
3131;SDS011;62090;52.330;9.104;2023-12-07T08:40:20;37.67;;;25.43;;
3131;SDS011;62090;52.330;9.104;2023-12-07T08:42:50;34.90;;;25.13;;
3131;SDS011;62090;52.330;9.104;2023-12-07T08:45:23;37.50;;;26.17;;
3131;SDS011;62090;52.330;9.104;2023-12-07T08:47:53;42.93;;;25.20;;
3131;SDS011;62090;52.330;9.104;2023-12-07T08:50:23;34.53;;;24.70;;
3131;SDS011;62090;52.330;9.104;2023-12-07T08:52:52;39.87;;;25.93;;
3131;SDS011;62090;52.330;9.104;2023-12-07T08:55:30;36.57;;;24.50;;
3131;SDS011;62090;52.330;9.104;2023-12-07T08:58:00;35.80;;;25.13;;
3131;SDS011;62090;52.330;9.104;2023-12-07T09:00:33;31.33;;;23.77;;
3131;SDS011;62090;52.330;9.104;2023-12-07T09:03:03;35.40;;;24.30;;
3131;SDS011;62090;52.330;9.104;2023-12-07T09:05:33;33.77;;;23.97;;
3131;SDS011;62090;52.330;9.104;2023-12-07T09:08:03;33.03;;;21.70;;
3131;SDS011;62090;52.330;9.104;2023-12-07T09:10:33;31.33;;;22.10;;
3131;SDS011;62090;52.330;9.104;2023-12-07T09:13:03;41.83;;;24.03;;
3131;SDS011;62090;52.330;9.104;2023-12-07T09:15:36;41.23;;;23.50;;
3131;SDS011;62090;52.330;9.104;2023-12-07T09:18:06;38.30;;;23.93;;
3131;SDS011;62090;52.330;9.104;2023-12-07T09:20:38;38.97;;;24.40;;
3131;SDS011;62090;52.330;9.104;2023-12-07T09:23:13;36.27;;;24.10;;
3131;SDS011;62090;52.330;9.104;2023-12-07T09:25:43;36.87;;;24.70;;
3131;SDS011;62090;52.330;9.104;2023-12-07T09:28:13;39.63;;;26.20;;
3131;SDS011;62090;52.330;9.104;2023-12-07T09:30:45;37.43;;;26.90;;
3131;SDS011;62090;52.330;9.104;2023-12-07T09:33:15;37.70;;;26.17;;
3131;SDS011;62090;52.330;9.104;2023-12-07T09:35:47;39.90;;;26.07;;
3131;SDS011;62090;52.330;9.104;2023-12-07T09:38:18;40.90;;;27.23;;
3131;SDS011;62090;52.330;9.104;2023-12-07T09:40:51;45.20;;;28.43;;
3131;SDS011;62090;52.330;9.104;2023-12-07T09:43:22;47.47;;;27.77;;
3131;SDS011;62090;52.330;9.104;2023-12-07T09:45:54;44.93;;;27.60;;
3131;SDS011;62090;52.330;9.104;2023-12-07T09:48:26;41.70;;;26.13;;
3131;SDS011;62090;52.330;9.104;2023-12-07T09:50:56;43.90;;;27.50;;
3131;SDS011;62090;52.330;9.104;2023-12-07T09:53:26;40.33;;;26.97;;
3131;SDS011;62090;52.330;9.104;2023-12-07T09:55:58;43.47;;;27.23;;
3131;SDS011;62090;52.330;9.104;2023-12-07T09:58:28;41.20;;;26.90;;
3131;SDS011;62090;52.330;9.104;2023-12-07T10:01:09;46.53;;;26.53;;
3131;SDS011;62090;52.330;9.104;2023-12-07T10:03:41;46.50;;;27.43;;
3131;SDS011;62090;52.330;9.104;2023-12-07T10:06:14;40.10;;;26.57;;
3131;SDS011;62090;52.330;9.104;2023-12-07T10:08:44;48.40;;;27.90;;
3131;SDS011;62090;52.330;9.104;2023-12-07T10:11:14;47.27;;;28.90;;
3131;SDS011;62090;52.330;9.104;2023-12-07T10:13:45;48.60;;;27.70;;
3131;SDS011;62090;52.330;9.104;2023-12-07T10:16:17;45.03;;;27.30;;
3131;SDS011;62090;52.330;9.104;2023-12-07T10:18:47;48.20;;;28.47;;
3131;SDS011;62090;52.330;9.104;2023-12-07T10:21:17;50.57;;;29.57;;
3131;SDS011;62090;52.330;9.104;2023-12-07T10:24:01;51.63;;;29.33;;
3131;SDS011;62090;52.330;9.104;2023-12-07T10:26:30;44.50;;;26.70;;
3131;SDS011;62090;52.330;9.104;2023-12-07T10:29:04;49.80;;;28.90;;
3131;SDS011;62090;52.330;9.104;2023-12-07T10:31:45;56.40;;;29.03;;
3131;SDS011;62090;52.330;9.104;2023-12-07T10:34:17;48.17;;;28.90;;
3131;SDS011;62090;52.330;9.104;2023-12-07T10:36:47;51.90;;;28.60;;
3131;SDS011;62090;52.330;9.104;2023-12-07T10:39:19;55.63;;;29.83;;
3131;SDS011;62090;52.330;9.104;2023-12-07T10:42:01;61.70;;;31.00;;
3131;SDS011;62090;52.330;9.104;2023-12-07T10:44:36;52.47;;;28.13;;
3131;SDS011;62090;52.330;9.104;2023-12-07T10:47:12;51.53;;;29.23;;
3131;SDS011;62090;52.330;9.104;2023-12-07T10:49:43;51.20;;;28.53;;
3131;SDS011;62090;52.330;9.104;2023-12-07T10:52:21;55.57;;;30.23;;
3131;SDS011;62090;52.330;9.104;2023-12-07T10:55:00;55.93;;;29.40;;
3131;SDS011;62090;52.330;9.104;2023-12-07T10:57:32;54.60;;;30.10;;
3131;SDS011;62090;52.330;9.104;2023-12-07T11:00:04;50.50;;;29.93;;
3131;SDS011;62090;52.330;9.104;2023-12-07T11:02:39;56.13;;;28.70;;
3131;SDS011;62090;52.330;9.104;2023-12-07T11:05:10;49.50;;;27.70;;
3131;SDS011;62090;52.330;9.104;2023-12-07T11:07:47;46.73;;;27.60;;
3131;SDS011;62090;52.330;9.104;2023-12-07T11:10:23;48.23;;;29.73;;
3131;SDS011;62090;52.330;9.104;2023-12-07T11:13:05;52.77;;;29.23;;
3131;SDS011;62090;52.330;9.104;2023-12-07T11:15:42;56.23;;;29.53;;
3131;SDS011;62090;52.330;9.104;2023-12-07T11:18:15;54.23;;;29.07;;
3131;SDS011;62090;52.330;9.104;2023-12-07T11:20:45;53.77;;;28.17;;
3131;SDS011;62090;52.330;9.104;2023-12-07T11:23:16;52.60;;;29.93;;
3131;SDS011;62090;52.330;9.104;2023-12-07T11:25:47;45.53;;;28.33;;
3131;SDS011;62090;52.330;9.104;2023-12-07T11:28:18;46.27;;;26.80;;
3131;SDS011;62090;52.330;9.104;2023-12-07T11:30:49;49.27;;;29.03;;
3131;SDS011;62090;52.330;9.104;2023-12-07T11:33:22;48.73;;;27.47;;
3131;SDS011;62090;52.330;9.104;2023-12-07T11:36:05;53.00;;;29.50;;
3131;SDS011;62090;52.330;9.104;2023-12-07T11:38:36;46.83;;;26.50;;
3131;SDS011;62090;52.330;9.104;2023-12-07T11:41:07;52.43;;;28.70;;
3131;SDS011;62090;52.330;9.104;2023-12-07T11:43:37;47.83;;;28.70;;
3131;SDS011;62090;52.330;9.104;2023-12-07T11:46:13;61.40;;;27.83;;
3131;SDS011;62090;52.330;9.104;2023-12-07T11:48:48;43.37;;;26.07;;
3131;SDS011;62090;52.330;9.104;2023-12-07T11:51:18;45.77;;;25.80;;
3131;SDS011;62090;52.330;9.104;2023-12-07T11:53:48;45.93;;;27.00;;
3131;SDS011;62090;52.330;9.104;2023-12-07T11:56:18;49.00;;;25.70;;
3131;SDS011;62090;52.330;9.104;2023-12-07T11:58:49;49.90;;;26.27;;
3131;SDS011;62090;52.330;9.104;2023-12-07T12:01:19;44.87;;;26.70;;
3131;SDS011;62090;52.330;9.104;2023-12-07T12:03:52;51.33;;;27.77;;
3131;SDS011;62090;52.330;9.104;2023-12-07T12:06:23;42.87;;;26.30;;
3131;SDS011;62090;52.330;9.104;2023-12-07T12:08:55;48.30;;;28.83;;
3131;SDS011;62090;52.330;9.104;2023-12-07T12:11:25;48.90;;;27.33;;
3131;SDS011;62090;52.330;9.104;2023-12-07T12:13:55;48.03;;;27.03;;
3131;SDS011;62090;52.330;9.104;2023-12-07T12:16:25;51.13;;;26.83;;
3131;SDS011;62090;52.330;9.104;2023-12-07T12:18:58;45.83;;;26.67;;
3131;SDS011;62090;52.330;9.104;2023-12-07T12:21:28;42.20;;;24.97;;
3131;SDS011;62090;52.330;9.104;2023-12-07T12:23:58;45.70;;;25.13;;
3131;SDS011;62090;52.330;9.104;2023-12-07T12:26:27;40.30;;;23.77;;
3131;SDS011;62090;52.330;9.104;2023-12-07T12:28:58;43.67;;;24.40;;
3131;SDS011;62090;52.330;9.104;2023-12-07T12:31:28;42.53;;;24.60;;
3131;SDS011;62090;52.330;9.104;2023-12-07T12:34:02;43.77;;;25.33;;
3131;SDS011;62090;52.330;9.104;2023-12-07T12:36:38;42.57;;;24.90;;
3131;SDS011;62090;52.330;9.104;2023-12-07T12:39:08;42.17;;;24.10;;
3131;SDS011;62090;52.330;9.104;2023-12-07T12:41:53;37.50;;;22.77;;
3131;SDS011;62090;52.330;9.104;2023-12-07T12:44:23;40.47;;;23.20;;
3131;SDS011;62090;52.330;9.104;2023-12-07T12:47:03;44.23;;;22.90;;
3131;SDS011;62090;52.330;9.104;2023-12-07T12:49:39;36.00;;;22.70;;
3131;SDS011;62090;52.330;9.104;2023-12-07T12:52:14;39.20;;;23.53;;
3131;SDS011;62090;52.330;9.104;2023-12-07T12:54:45;47.50;;;24.07;;
3131;SDS011;62090;52.330;9.104;2023-12-07T12:57:16;36.90;;;21.77;;
3131;SDS011;62090;52.330;9.104;2023-12-07T12:59:46;33.17;;;21.60;;
3131;SDS011;62090;52.330;9.104;2023-12-07T13:02:17;39.17;;;23.00;;
3131;SDS011;62090;52.330;9.104;2023-12-07T13:04:50;38.43;;;22.77;;
3131;SDS011;62090;52.330;9.104;2023-12-07T13:07:20;40.17;;;25.20;;
3131;SDS011;62090;52.330;9.104;2023-12-07T13:09:51;37.60;;;22.83;;
3131;SDS011;62090;52.330;9.104;2023-12-07T13:12:21;39.93;;;22.87;;
3131;SDS011;62090;52.330;9.104;2023-12-07T13:14:54;44.63;;;23.47;;
3131;SDS011;62090;52.330;9.104;2023-12-07T13:17:25;39.30;;;22.47;;
3131;SDS011;62090;52.330;9.104;2023-12-07T13:19:58;38.33;;;22.10;;
3131;SDS011;62090;52.330;9.104;2023-12-07T13:22:28;35.80;;;22.37;;
3131;SDS011;62090;52.330;9.104;2023-12-07T13:24:58;43.83;;;22.17;;
3131;SDS011;62090;52.330;9.104;2023-12-07T13:27:27;30.03;;;18.20;;
3131;SDS011;62090;52.330;9.104;2023-12-07T13:29:57;32.10;;;16.50;;
3131;SDS011;62090;52.330;9.104;2023-12-07T13:32:29;31.20;;;17.83;;
3131;SDS011;62090;52.330;9.104;2023-12-07T13:35:01;25.20;;;17.60;;
3131;SDS011;62090;52.330;9.104;2023-12-07T13:37:32;33.33;;;17.93;;
3131;SDS011;62090;52.330;9.104;2023-12-07T13:40:03;31.43;;;18.60;;
3131;SDS011;62090;52.330;9.104;2023-12-07T13:42:36;28.87;;;15.60;;
3131;SDS011;62090;52.330;9.104;2023-12-07T13:45:07;28.57;;;19.33;;
3131;SDS011;62090;52.330;9.104;2023-12-07T13:47:38;28.33;;;17.83;;
3131;SDS011;62090;52.330;9.104;2023-12-07T13:50:10;31.97;;;17.97;;
3131;SDS011;62090;52.330;9.104;2023-12-07T13:52:40;29.67;;;18.23;;
3131;SDS011;62090;52.330;9.104;2023-12-07T13:55:11;28.83;;;17.50;;
3131;SDS011;62090;52.330;9.104;2023-12-07T13:57:41;29.53;;;18.03;;
3131;SDS011;62090;52.330;9.104;2023-12-07T14:00:11;36.80;;;19.20;;
3131;SDS011;62090;52.330;9.104;2023-12-07T14:02:43;31.83;;;20.30;;
3131;SDS011;62090;52.330;9.104;2023-12-07T14:05:16;32.67;;;19.33;;
3131;SDS011;62090;52.330;9.104;2023-12-07T14:07:48;28.97;;;18.37;;
3131;SDS011;62090;52.330;9.104;2023-12-07T14:10:18;33.67;;;18.93;;
3131;SDS011;62090;52.330;9.104;2023-12-07T14:12:48;35.47;;;19.37;;
3131;SDS011;62090;52.330;9.104;2023-12-07T14:15:19;33.50;;;19.50;;
3131;SDS011;62090;52.330;9.104;2023-12-07T14:18:05;32.03;;;19.83;;
3131;SDS011;62090;52.330;9.104;2023-12-07T14:20:38;34.80;;;19.80;;
3131;SDS011;62090;52.330;9.104;2023-12-07T14:23:30;33.20;;;19.60;;
3131;SDS011;62090;52.330;9.104;2023-12-07T14:26:01;34.77;;;19.00;;
3131;SDS011;62090;52.330;9.104;2023-12-07T14:28:33;26.77;;;17.63;;
3131;SDS011;62090;52.330;9.104;2023-12-07T14:31:03;32.20;;;20.63;;
3131;SDS011;62090;52.330;9.104;2023-12-07T14:33:34;27.90;;;17.20;;
3131;SDS011;62090;52.330;9.104;2023-12-07T14:36:08;28.90;;;18.27;;
3131;SDS011;62090;52.330;9.104;2023-12-07T14:38:39;29.43;;;17.77;;
3131;SDS011;62090;52.330;9.104;2023-12-07T14:41:09;31.03;;;17.60;;
3131;SDS011;62090;52.330;9.104;2023-12-07T14:43:40;28.67;;;18.27;;
3131;SDS011;62090;52.330;9.104;2023-12-07T14:46:09;28.93;;;18.30;;
3131;SDS011;62090;52.330;9.104;2023-12-07T14:48:39;27.50;;;17.13;;
3131;SDS011;62090;52.330;9.104;2023-12-07T14:51:15;29.00;;;18.57;;
3131;SDS011;62090;52.330;9.104;2023-12-07T14:53:47;28.63;;;16.80;;
3131;SDS011;62090;52.330;9.104;2023-12-07T14:56:17;34.40;;;17.20;;
3131;SDS011;62090;52.330;9.104;2023-12-07T14:58:48;29.73;;;17.77;;